Terminal Aerodrome Forecast
Issued by NWS

Home | Current Version | Previous Version | Graphics & Text | Print | Product List | Glossary On
Versions: 1 2 3 4 5 6 7 8 9 10 11 12 13 14 15 16 17 18 19 20
000
FTUS41 KCLE 121133
TAFFDY
TAF
KFDY 121133Z 1212/1312 31015G25KT P6SM SCT025 OVC040
      TEMPO 1212/1216 BKN025
     FM121700 31018G28KT P6SM OVC050=

USA.gov is the U.S. government's official web portal to all federal, state and local government web resources and services.